Thunder radar more information blitzortung!


Radar de pluja more information rain snow radar


Visita la nostra xarxa de llocs de meteo:

Template documentation
and downloads

And another site



Wind From: 11-12-2017 11:00 Until: 14:59 warning for: Wind Level: Yellow info button

Pagina Historial Weather Underground text

Diari Resum February 29, 2016 Unitats:  Mètric    Imperial   Tant
« Previous Dia
SegĂźent Dia »
Diari Setmana Mensual Anual Personalitzada
  Maxima: Minima: Media:
Temperatura: 17.3 °C 4.7 °C 12 °C
Punt de rosada: 3.9 °C -8.2 °C -0.8 °C
Humitat: 54 % 35 % 41 %
Wind Speed: 25.9 km/h 0.0 km/h 8.6 km/h
RĂ fegues de vent: 25.9 km/h - -
Vent:- - WSW
Pression baro: 1020.9 hPa 1007.0 hPa -
Precipitacions: 0.0 mm    
Historical Graphs
 
 
Dades de taula per February 29, 2016
Temps Temperatura Punt de rosada Pression baro Vent Wind Speed RĂ fegues de vent Humitat Rainfall Rate (Hourly)
03:35 9.1 °C 0.3 °C 1007.0 hPa West 4.8 km/h 4.8 km/h 54 % 0.0 mm
03:45 9.6 °C 0.7 °C 1007.0 hPa NW 3.2 km/h 3.2 km/h 54 % 0.0 mm
03:55 10.0 °C 1.1 °C 1007.0 hPa WNW 4.8 km/h 4.8 km/h 54 % 0.0 mm
04:05 10.6 °C 1.4 °C 1007.0 hPa West 1.6 km/h 9.7 km/h 53 % 0.0 mm
04:15 10.8 °C 1.3 °C 1007.0 hPa NW 8.0 km/h 8.0 km/h 52 % 0.0 mm
04:25 11.3 °C 1.5 °C 1007.0 hPa NW 4.8 km/h 9.7 km/h 51 % 0.0 mm
04:35 11.8 °C 2.0 °C 1007.0 hPa West 4.8 km/h 9.7 km/h 51 % 0.0 mm
04:45 11.7 °C 1.1 °C 1007.0 hPa WSW 4.8 km/h 8.0 km/h 48 % 0.0 mm
10:53 12.0 °C 1.0 °C 1007.0 hPa NNE 25.9 km/h 25.9 km/h 47 % 0.0 mm
10:58 11.9 °C 0.9 °C 1007.0 hPa NNW 13.0 km/h 13.0 km/h 47 % 0.0 mm
11:03 11.7 °C 0.7 °C 1007.0 hPa South 16.1 km/h 16.1 km/h 47 % 0.0 mm
11:08 11.4 °C -0.1 °C 1007.0 hPa SW 13.0 km/h 13.0 km/h 45 % 0.0 mm
11:13 11.3 °C -0.2 °C 1007.0 hPa West 18.5 km/h 18.5 km/h 45 % 0.0 mm
11:18 11.2 °C -0.3 °C 1008.0 hPa SW 16.7 km/h 16.7 km/h 45 % 0.0 mm
11:23 11.3 °C 0.1 °C 1008.0 hPa West 14.8 km/h 14.8 km/h 46 % 0.0 mm
11:28 11.8 °C 0.6 °C 1008.0 hPa NNW 13.0 km/h 13.0 km/h 46 % 0.0 mm
11:33 11.9 °C 0.6 °C 1007.0 hPa NNW 7.4 km/h 7.4 km/h 46 % 0.0 mm
11:38 12.0 °C 1.0 °C 1007.0 hPa WNW 9.7 km/h 9.7 km/h 47 % 0.0 mm
11:43 11.8 °C 0.6 °C 1007.0 hPa West 11.1 km/h 11.1 km/h 46 % 0.0 mm
11:48 11.8 °C 0.2 °C 1007.0 hPa WSW 7.4 km/h 7.9 km/h 45 % 0.0 mm
11:53 12.0 °C 0.4 °C 1007.0 hPa West 18.5 km/h 18.5 km/h 45 % 0.0 mm
11:58 12.4 °C 0.8 °C 1007.0 hPa WSW 14.8 km/h 14.8 km/h 45 % 0.0 mm
12:03 13.0 °C 1.3 °C 1008.0 hPa WSW 11.1 km/h 11.1 km/h 45 % 0.0 mm
12:08 13.2 °C 1.5 °C 1008.0 hPa SW 7.4 km/h 7.4 km/h 45 % 0.0 mm
12:13 13.4 °C 1.4 °C 1008.0 hPa WSW 9.3 km/h 9.3 km/h 44 % 0.0 mm
12:18 13.7 °C 1.9 °C 1007.0 hPa SW 5.8 km/h 7.2 km/h 45 % 0.0 mm
12:23 14.0 °C 1.9 °C 1007.0 hPa SW 9.3 km/h 9.3 km/h 44 % 0.0 mm
12:28 14.1 °C 2.0 °C 1007.0 hPa NW 9.3 km/h 9.3 km/h 44 % 0.0 mm
12:33 14.3 °C 2.2 °C 1008.0 hPa North 9.3 km/h 9.3 km/h 44 % 0.0 mm
12:38 14.6 °C 2.4 °C 1008.0 hPa SW 13.7 km/h 13.7 km/h 44 % 0.0 mm
12:43 14.7 °C 2.2 °C 1008.0 hPa WSW 9.3 km/h 9.3 km/h 43 % 0.0 mm
12:48 14.8 °C 2.3 °C 1007.0 hPa WNW 12.2 km/h 12.2 km/h 43 % 0.0 mm
12:53 14.8 °C 2.0 °C 1007.0 hPa SW 16.7 km/h 16.7 km/h 42 % 0.0 mm
12:58 14.6 °C 1.8 °C 1007.0 hPa WSW 16.7 km/h 16.7 km/h 42 % 0.0 mm
13:03 14.4 °C 1.9 °C 1008.0 hPa NW 9.7 km/h 9.7 km/h 43 % 0.0 mm
13:13 14.6 °C 2.2 °C 1008.0 hPa WSW 13.0 km/h 13.0 km/h 43 % 0.0 mm
13:18 14.5 °C 2.4 °C 1008.0 hPa WSW 17.2 km/h 17.2 km/h 44 % 0.0 mm
13:23 14.7 °C 2.6 °C 1008.0 hPa West 9.3 km/h 9.3 km/h 44 % 0.0 mm
13:28 14.6 °C 2.2 °C 1008.0 hPa NE 10.3 km/h 10.3 km/h 43 % 0.0 mm
13:33 14.4 °C 2.3 °C 1008.0 hPa West 11.1 km/h 11.1 km/h 44 % 0.0 mm
13:38 14.6 °C 2.4 °C 1008.0 hPa WSW 18.0 km/h 18.0 km/h 44 % 0.0 mm
13:43 14.6 °C 2.2 °C 1008.0 hPa NE 19.0 km/h 19.0 km/h 43 % 0.0 mm
13:48 14.7 °C 2.2 °C 1008.0 hPa NNW 14.8 km/h 14.8 km/h 43 % 0.0 mm
13:53 15.0 °C 2.5 °C 1008.0 hPa North 9.3 km/h 9.3 km/h 43 % 0.0 mm
13:58 15.2 °C 2.7 °C 1008.0 hPa SW 9.3 km/h 9.3 km/h 43 % 0.0 mm
14:03 15.3 °C 2.8 °C 1008.0 hPa WNW 9.3 km/h 9.3 km/h 43 % 0.0 mm
14:08 15.3 °C 2.8 °C 1008.0 hPa South 16.7 km/h 16.7 km/h 43 % 0.0 mm
14:13 15.6 °C 3.1 °C 1008.0 hPa WSW 9.3 km/h 9.3 km/h 43 % 0.0 mm
14:18 16.0 °C 3.4 °C 1008.0 hPa SSW 9.5 km/h 9.5 km/h 43 % 0.0 mm
14:23 15.8 °C 2.9 °C 1008.0 hPa NW 11.1 km/h 11.1 km/h 42 % 0.0 mm
14:28 15.7 °C 2.4 °C 1008.0 hPa West 9.3 km/h 10.0 km/h 41 % 0.0 mm
14:33 15.7 °C 2.4 °C 1008.0 hPa West 16.7 km/h 16.7 km/h 41 % 0.0 mm
14:38 15.7 °C 2.8 °C 1008.0 hPa SW 13.0 km/h 13.0 km/h 42 % 0.0 mm
14:43 16.0 °C 3.1 °C 1008.0 hPa SW 9.0 km/h 10.3 km/h 42 % 0.0 mm
14:48 16.0 °C 3.1 °C 1008.0 hPa WSW 9.3 km/h 9.3 km/h 42 % 0.0 mm
14:53 16.1 °C 2.8 °C 1008.0 hPa SW 11.1 km/h 11.1 km/h 41 % 0.0 mm
14:58 16.4 °C 3.1 °C 1008.0 hPa West 9.3 km/h 9.3 km/h 41 % 0.0 mm
15:03 16.5 °C 2.8 °C 1009.0 hPa WSW 16.7 km/h 16.7 km/h 40 % 0.0 mm
15:08 16.3 °C 2.7 °C 1009.0 hPa West 16.7 km/h 16.7 km/h 40 % 0.0 mm
15:13 16.3 °C 2.7 °C 1009.0 hPa SSW 13.0 km/h 13.0 km/h 40 % 0.0 mm
15:18 16.5 °C 2.8 °C 1009.0 hPa West 14.8 km/h 14.8 km/h 40 % 0.0 mm
15:23 16.4 °C 3.1 °C 1009.0 hPa WSW 9.3 km/h 9.3 km/h 41 % 0.0 mm
15:28 16.6 °C 2.9 °C 1009.0 hPa East 16.7 km/h 16.7 km/h 40 % 0.0 mm
15:33 16.6 °C 2.9 °C 1009.0 hPa WSW 18.5 km/h 18.5 km/h 40 % 0.0 mm
15:38 16.8 °C 3.1 °C 1009.0 hPa WNW 7.4 km/h 7.4 km/h 40 % 0.0 mm
15:43 17.0 °C 3.3 °C 1009.0 hPa WNW 13.0 km/h 13.0 km/h 40 % 0.0 mm
15:48 17.0 °C 3.7 °C 1009.0 hPa SW 7.6 km/h 7.6 km/h 41 % 0.0 mm
15:58 17.1 °C 3.7 °C 1009.0 hPa NNW 9.5 km/h 9.5 km/h 41 % 0.0 mm
16:03 17.3 °C 3.9 °C 1009.0 hPa WSW 13.0 km/h 13.0 km/h 41 % 0.0 mm
16:08 17.0 °C 3.7 °C 1009.0 hPa East 13.0 km/h 13.0 km/h 41 % 0.0 mm
16:13 17.0 °C 3.7 °C 1009.0 hPa NW 13.7 km/h 13.7 km/h 41 % 0.0 mm
16:18 17.0 °C 3.7 °C 1010.0 hPa SW 14.8 km/h 14.8 km/h 41 % 0.0 mm
16:23 16.8 °C 3.4 °C 1010.0 hPa SSW 7.4 km/h 7.4 km/h 41 % 0.0 mm
16:28 16.8 °C 3.4 °C 1010.0 hPa NNW 9.3 km/h 9.3 km/h 41 % 0.0 mm
16:33 16.8 °C 3.1 °C 1010.0 hPa WSW 14.8 km/h 14.8 km/h 40 % 0.0 mm
16:38 16.8 °C 3.4 °C 1010.0 hPa WNW 20.4 km/h 20.4 km/h 41 % 0.0 mm
16:43 16.7 °C 3.4 °C 1010.0 hPa SW 25.9 km/h 25.9 km/h 41 % 0.0 mm
16:53 16.6 °C 3.3 °C 1009.0 hPa SW 9.3 km/h 9.3 km/h 41 % 0.0 mm
16:58 16.7 °C 3.4 °C 1009.0 hPa WNW 9.3 km/h 9.3 km/h 41 % 0.0 mm
17:08 16.5 °C 3.2 °C 1010.0 hPa WNW 14.8 km/h 14.8 km/h 41 % 0.0 mm
17:13 16.4 °C 3.4 °C 1010.0 hPa WSW 9.0 km/h 9.0 km/h 42 % 0.0 mm
17:15 9.5 °C -4.8 °C 1016.8 hPa WSW 4.8 km/h 6.4 km/h 36 % 0.0 mm
17:23 16.2 °C 2.9 °C 1010.7 hPa NNW 17.2 km/h 17.2 km/h 41 % 0.0 mm
17:25 9.6 °C -4.8 °C 1017.8 hPa WSW 3.2 km/h 9.7 km/h 36 % 0.0 mm
17:28 16.0 °C 2.7 °C 1010.7 hPa WSW 18.5 km/h 18.5 km/h 41 % 0.0 mm
17:33 15.9 °C 2.7 °C 1010.7 hPa WSW 9.3 km/h 9.3 km/h 41 % 0.0 mm
17:35 9.7 °C -4.7 °C 1017.8 hPa North 1.6 km/h 6.4 km/h 36 % 0.0 mm
17:38 15.8 °C 2.9 °C 1010.7 hPa WNW 10.0 km/h 10.0 km/h 42 % 0.0 mm
17:45 9.3 °C -5.1 °C 1017.8 hPa NW 1.6 km/h 3.2 km/h 36 % 0.0 mm
17:48 15.6 °C 2.7 °C 1010.7 hPa SW 9.3 km/h 9.3 km/h 42 % 0.0 mm
17:53 15.5 °C 2.6 °C 1010.7 hPa WSW 5.6 km/h 5.6 km/h 42 % 0.0 mm
17:55 9.0 °C -5.3 °C 1017.8 hPa Calm   3.2 km/h 36 % 0.0 mm
17:58 15.4 °C 2.6 °C 1010.7 hPa West 9.5 km/h 9.5 km/h 42 % 0.0 mm
18:03 15.2 °C 2.3 °C 1010.7 hPa West 18.5 km/h 18.5 km/h 42 % 0.0 mm
18:05 8.8 °C -5.8 °C 1018.8 hPa West 3.2 km/h 6.4 km/h 35 % 0.0 mm
18:08 15.0 °C 2.2 °C 1010.7 hPa West 9.3 km/h 9.3 km/h 42 % 0.0 mm
18:13 14.9 °C 2.1 °C 1010.7 hPa WSW 9.3 km/h 9.3 km/h 42 % 0.0 mm
18:15 8.5 °C -6.1 °C 1018.8 hPa WSW 1.6 km/h 6.4 km/h 35 % 0.0 mm
18:18 14.8 °C 2.0 °C 1011.7 hPa WSW 16.7 km/h 16.7 km/h 42 % 0.0 mm
18:23 14.6 °C 1.8 °C 1011.7 hPa NNE 20.4 km/h 20.4 km/h 42 % 0.0 mm
18:25 8.5 °C -6.1 °C 1018.8 hPa NNW 3.2 km/h 6.4 km/h 35 % 0.0 mm
18:28 14.5 °C 1.7 °C 1011.7 hPa SW 11.1 km/h 11.1 km/h 42 % 0.0 mm
18:33 14.3 °C 1.6 °C 1011.7 hPa WSW 16.7 km/h 16.7 km/h 42 % 0.0 mm
18:35 8.5 °C -5.7 °C 1018.8 hPa NNW 4.8 km/h 6.4 km/h 36 % 0.0 mm
18:38 14.2 °C 1.4 °C 1011.7 hPa WNW 14.8 km/h 14.8 km/h 42 % 0.0 mm
18:43 14.0 °C 1.3 °C 1011.7 hPa West 15.6 km/h 15.6 km/h 42 % 0.0 mm
18:45 8.2 °C -6.4 °C 1018.8 hPa WSW 1.6 km/h 4.8 km/h 35 % 0.0 mm
18:48 13.9 °C 0.8 °C 1011.7 hPa West 22.2 km/h 22.2 km/h 41 % 0.0 mm
18:55 8.1 °C -6.4 °C 1018.8 hPa West 1.6 km/h 3.2 km/h 35 % 0.0 mm
18:58 13.6 °C 0.9 °C 1011.7 hPa WNW 9.3 km/h 9.3 km/h 42 % 0.0 mm
19:03 13.4 °C 0.7 °C 1012.8 hPa NNW 9.3 km/h 9.3 km/h 42 % 0.0 mm
19:05 8.0 °C -6.6 °C 1018.8 hPa NW 4.8 km/h 4.8 km/h 35 % 0.0 mm
19:08 13.2 °C 0.6 °C 1012.8 hPa SW 5.6 km/h 6.1 km/h 42 % 0.0 mm
19:13 13.1 °C 0.4 °C 1012.8 hPa NNE 5.6 km/h 6.9 km/h 42 % 0.0 mm
19:15 8.0 °C -6.6 °C 1018.8 hPa Calm   4.8 km/h 35 % 0.0 mm
19:18 12.9 °C 0.3 °C 1012.8 hPa SW 11.1 km/h 11.1 km/h 42 % 0.0 mm
19:23 12.8 °C 0.2 °C 1012.8 hPa SW 3.7 km/h 5.0 km/h 42 % 0.0 mm
19:25 7.7 °C -6.8 °C 1018.8 hPa Calm   3.2 km/h 35 % 0.0 mm
19:28 12.7 °C 0.1 °C 1012.8 hPa WSW 14.8 km/h 14.8 km/h 42 % 0.0 mm
19:33 12.6 °C 0.0 °C 1013.8 hPa NW 9.7 km/h 9.7 km/h 42 % 0.0 mm
19:35 7.4 °C -7.1 °C 1018.8 hPa WSW 1.6 km/h 3.2 km/h 35 % 0.0 mm
19:38 12.4 °C -0.2 °C 1013.8 hPa West 3.7 km/h 3.9 km/h 42 % 0.0 mm
19:43 12.3 °C -0.3 °C 1013.8 hPa South 9.3 km/h 9.3 km/h 42 % 0.0 mm
19:45 7.0 °C -7.4 °C 1018.8 hPa WSW 1.6 km/h 1.6 km/h 35 % 0.0 mm
19:53 12.2 °C -0.3 °C 1013.8 hPa NNW 7.4 km/h 7.4 km/h 42 % 0.0 mm
19:55 6.9 °C -7.6 °C 1019.9 hPa Calm   3.2 km/h 35 % 0.0 mm
19:58 12.2 °C -0.3 °C 1013.8 hPa West 3.7 km/h 3.7 km/h 42 % 0.0 mm
20:03 12.0 °C -0.6 °C 1013.8 hPa WNW 7.4 km/h 7.4 km/h 42 % 0.0 mm
20:05 7.0 °C -7.4 °C 1019.9 hPa West 1.6 km/h 3.2 km/h 35 % 0.0 mm
20:08 11.9 °C -0.6 °C 1013.8 hPa WSW 5.6 km/h 5.6 km/h 42 % 0.0 mm
20:13 11.8 °C -0.7 °C 1013.8 hPa NE 3.7 km/h 3.7 km/h 42 % 0.0 mm
20:15 7.0 °C -7.4 °C 1019.9 hPa West 1.6 km/h 4.8 km/h 35 % 0.0 mm
20:18 11.7 °C -0.8 °C 1014.8 hPa West 7.4 km/h 7.4 km/h 42 % 0.0 mm
20:23 11.6 °C -0.9 °C 1014.8 hPa East 3.7 km/h 3.7 km/h 42 % 0.0 mm
20:25 6.6 °C -7.4 °C 1019.9 hPa WSW 1.6 km/h 4.8 km/h 36 % 0.0 mm
20:28 11.5 °C -1.0 °C 1014.8 hPa WNW 7.4 km/h 7.4 km/h 42 % 0.0 mm
20:33 11.5 °C -1.0 °C 1014.8 hPa NNE 9.3 km/h 9.3 km/h 42 % 0.0 mm
20:35 6.6 °C -7.4 °C 1019.9 hPa WNW 4.8 km/h 6.4 km/h 36 % 0.0 mm
20:38 11.3 °C -1.2 °C 1014.8 hPa West 5.6 km/h 5.6 km/h 42 % 0.0 mm
20:43 11.3 °C -1.2 °C 1014.8 hPa WSW 10.0 km/h 10.0 km/h 42 % 0.0 mm
20:45 6.6 °C -7.4 °C 1019.9 hPa WSW 3.2 km/h 4.8 km/h 36 % 0.0 mm
20:48 11.3 °C -1.5 °C 1014.8 hPa SW 11.1 km/h 11.1 km/h 41 % 0.0 mm
20:53 11.1 °C -1.7 °C 1014.8 hPa SSE 3.7 km/h 3.7 km/h 41 % 0.0 mm
20:55 6.5 °C -7.5 °C 1019.9 hPa WSW 3.2 km/h 8.0 km/h 36 % 0.0 mm
20:58 11.0 °C -1.8 °C 1014.8 hPa West 7.4 km/h 7.4 km/h 41 % 0.0 mm
21:05 6.2 °C -7.8 °C 1018.8 hPa Calm   4.8 km/h 36 % 0.0 mm
21:08 10.9 °C -1.8 °C 1015.8 hPa WSW 5.6 km/h 5.6 km/h 41 % 0.0 mm
21:13 10.8 °C -1.9 °C 1015.8 hPa West 9.3 km/h 9.3 km/h 41 % 0.0 mm
21:15 6.1 °C -7.5 °C 1018.8 hPa West 3.2 km/h 4.8 km/h 37 % 0.0 mm
21:23 10.6 °C -2.1 °C 1015.8 hPa West 7.4 km/h 7.4 km/h 41 % 0.0 mm
21:25 6.0 °C -7.6 °C 1019.9 hPa WSW 1.6 km/h 3.2 km/h 37 % 0.0 mm
21:28 10.5 °C -2.2 °C 1015.8 hPa WSW 3.7 km/h 3.7 km/h 41 % 0.0 mm
21:33 10.3 °C -2.4 °C 1015.8 hPa WSW 3.7 km/h 3.7 km/h 41 % 0.0 mm
21:35 5.9 °C -7.7 °C 1019.9 hPa Calm   3.2 km/h 37 % 0.0 mm
21:38 10.2 °C -2.5 °C 1015.8 hPa West 3.7 km/h 3.7 km/h 41 % 0.0 mm
21:43 10.1 °C -2.6 °C 1015.8 hPa WSW 1.9 km/h 1.9 km/h 41 % 0.0 mm
21:45 5.7 °C -7.9 °C 1019.9 hPa NW 1.6 km/h 3.2 km/h 37 % 0.0 mm
21:48 10.0 °C -2.7 °C 1016.8 hPa WNW 3.7 km/h 3.7 km/h 41 % 0.0 mm
21:53 10.0 °C -2.7 °C 1016.8 hPa WSW 6.9 km/h 6.9 km/h 41 % 0.0 mm
21:55 5.5 °C -7.7 °C 1019.9 hPa Calm   3.2 km/h 38 % 0.0 mm
21:58 9.9 °C -2.8 °C 1016.8 hPa West 9.3 km/h 9.3 km/h 41 % 0.0 mm
22:03 9.9 °C -3.1 °C 1016.8 hPa West 9.3 km/h 9.3 km/h 40 % 0.0 mm
22:05 5.3 °C -7.9 °C 1019.9 hPa NE 1.6 km/h 1.6 km/h 38 % 0.0 mm
22:08 9.9 °C -3.1 °C 1016.8 hPa WSW 5.6 km/h 5.6 km/h 40 % 0.0 mm
22:13 9.9 °C -3.1 °C 1016.8 hPa WSW 5.6 km/h 5.6 km/h 40 % 0.0 mm
22:15 5.1 °C -8.1 °C 1019.9 hPa North 3.2 km/h 4.8 km/h 38 % 0.0 mm
22:18 9.7 °C -3.3 °C 1017.8 hPa WSW 2.3 km/h   40 % 0.0 mm
22:23 9.6 °C -3.3 °C 1017.8 hPa SW 3.7 km/h 3.7 km/h 40 % 0.0 mm
22:25 5.0 °C -8.2 °C 1019.9 hPa NNW 1.6 km/h 4.8 km/h 38 % 0.0 mm
22:28 9.5 °C -3.4 °C 1017.8 hPa WSW 5.6 km/h 5.6 km/h 40 % 0.0 mm
22:33 9.7 °C -3.6 °C 1017.8 hPa WSW 9.3 km/h 9.3 km/h 39 % 0.0 mm
22:35 4.9 °C -7.9 °C 1019.9 hPa North 1.6 km/h 4.8 km/h 39 % 0.0 mm
22:38 9.6 °C -3.7 °C 1017.8 hPa NNE 5.8 km/h 6.4 km/h 39 % 0.0 mm
22:43 9.8 °C -3.9 °C 1017.8 hPa NE 9.3 km/h 9.3 km/h 38 % 0.0 mm
22:45 5.5 °C -7.4 °C 1019.9 hPa WNW 4.8 km/h 6.4 km/h 39 % 0.0 mm
22:48 10.0 °C -3.7 °C 1017.8 hPa West 3.7 km/h 3.9 km/h 38 % 0.0 mm
22:53 10.0 °C -3.7 °C 1017.8 hPa South 3.7 km/h 3.7 km/h 38 % 0.0 mm
22:55 5.5 °C -7.4 °C 1019.9 hPa West 1.6 km/h 6.4 km/h 39 % 0.0 mm
23:03 9.7 °C -3.9 °C 1016.8 hPa WSW 5.6 km/h 5.6 km/h 38 % 0.0 mm
23:05 5.4 °C -7.2 °C 1019.9 hPa West 3.2 km/h 3.2 km/h 40 % 0.0 mm
23:08 9.6 °C -4.4 °C 1016.8 hPa NNE 9.3 km/h 9.3 km/h 37 % 0.0 mm
23:15 5.3 °C -7.2 °C 1019.9 hPa WSW 4.8 km/h 6.4 km/h 40 % 0.0 mm
23:25 5.2 °C -7.3 °C 1019.9 hPa NNE 4.8 km/h 4.8 km/h 40 % 0.0 mm
23:35 5.2 °C -7.3 °C 1020.9 hPa North 1.6 km/h 4.8 km/h 40 % 0.0 mm
23:45 4.9 °C -7.3 °C 1020.9 hPa NNW 3.2 km/h 4.8 km/h 41 % 0.0 mm
23:55 4.7 °C -7.4 °C 1020.9 hPa Calm   4.8 km/h 41 % 0.0 mm
Meteo Sesrovires
Elogis d' Weather Underground - 3.5 mb

Guio original per  Jim McMurry - jmcmurry@mwt.net Adaptat per a la plantilla per  Wim van der Kuil - Leuven-Template.eu

Trobareu la nostra informacio del temps tambe a:

Weather Underground

AWEKAS